Floreffe, Belgium
Current Conditions -  °F | °C
As of 2:20 PM on Tuesday 21 Oct 2014 (Local Time) from EBCI Reporting Station
Broken Clouds Broken Clouds  
Wind Chill: 55°   Ceiling: 1200
Heat Index: 55°   Visibility: 6mi
Dew Point: 54°   Wind: 22mph
Humidity: 94%   Direction: 220°SW
Pressure: 29.62"   Gusts: NA
Location:  50.43°N, 4.76°E
Report Text: EBCI 211220Z 22019KT 9999 FEW004 BKN012 13/12 Q1003 TEMPO 22020G30KT
Loading
Personal Weather Stations






























Interactive Weather Map
Tropical Storm Tracking
New forecast layout! Learn more

10-Day Weather Forecast

Advertisements
Track Severe Weather on mobile